Date,TemperatureHighF,TemperatureAvgF,TemperatureLowF,DewpointHighF,DewpointAvgF,DewpointLowF,HumidityHigh,HumidityAvg,HumidityLow,PressureMaxIn,PressureMinIn,WindSpeedMaxMPH,WindSpeedAvgMPH,GustSpeedMaxMPH,PrecipitationSumIn
2012-1-1,52.2,43.9,35.4,44.2,37.0,29.6,94,79,42,29.91,29.53,17,5,17,0.04
2012-1-2,51.3,43.0,36.0,46.9,24.0,11.6,85,50,31,29.59,29.38,20,10,20,0.00
2012-1-3,36.0,28.3,15.6,13.7,4.6,-8.0,45,36,30,29.83,29.56,22,9,22,0.00
2012-1-4,29.7,21.1,11.5,11.9,-2.3,-11.4,47,35,28,29.97,29.77,21,8,21,0.00
2012-1-5,39.6,32.3,27.5,15.4,9.9,4.7,43,39,35,29.77,29.59,18,8,18,0.00
2012-1-6,50.5,38.9,29.1,36.8,22.8,5.8,78,54,36,29.80,29.59,16,6,17,0.00
2012-1-7,51.3,44.4,35.1,41.6,36.5,30.5,84,75,52,29.74,29.53,14,6,14,0.00
2012-1-8,47.5,39.5,31.3,34.8,19.7,10.2,87,46,35,30.09,29.74,15,6,15,0.00
2012-1-9,40.3,32.2,27.0,16.9,10.8,6.4,49,41,31,30.15,29.85,14,6,14,0.00
2012-1-10,46.9,39.3,32.9,31.5,21.7,16.2,78,50,37,29.85,29.59,14,6,14,0.00
2012-1-11,42.8,35.0,27.3,20.5,17.3,13.0,60,48,38,29.94,29.77,13,5,13,0.00
2012-1-15,21.4,15.2,10.6,-5.0,-8.5,-12.2,39,34,30,30.33,30.09,23,8,23,0.00
2012-1-16,40.6,23.2,9.7,32.2,2.5,-13.0,86,41,34,30.45,30.03,26,8,26,0.00
2012-1-17,47.8,41.6,35.1,44.8,35.9,31.3,94,80,62,30.03,29.38,20,9,26,0.00
2012-1-18,47.3,37.1,23.2,42.7,16.0,-2.3,91,45,30,29.97,29.32,27,10,27,0.00
2012-1-19,35.6,27.5,18.9,26.5,6.2,-4.8,76,40,32,30.09,29.77,16,6,19,0.00
2012-1-20,34.5,30.8,23.5,29.7,13.7,-0.4,83,52,32,30.12,29.77,17,8,19,0.00
2012-1-21,32.4,28.1,22.5,29.2,15.6,-0.4,88,61,35,30.12,29.85,24,7,24,0.00
2012-1-22,39.6,31.2,27.7,18.7,14.9,12.6,65,51,39,30.39,30.09,18,6,18,0.00
2012-1-23,53.8,41.7,32.0,53.2,32.6,18.7,98,71,44,30.33,29.77,17,7,23,0.00
2012-1-24,54.0,45.4,36.0,53.4,41.2,30.4,98,86,51,29.85,29.74,21,7,21,0.47
2012-1-25,45.9,38.9,34.3,34.7,19.2,16.9,79,45,36,30.03,29.85,18,7,18,0.00
2012-1-26,41.0,36.1,34.3,19.5,18.5,17.0,53,48,41,30.06,30.00,10,4,10,0.00
2012-1-31,50.2,44.6,40.6,36.4,30.2,25.0,80,58,43,29.97,29.85,13,7,13,0.00
2012-2-1,50.4,44.9,40.3,40.0,34.8,24.5,84,68,43,29.85,29.65,17,7,17,0.00
2012-2-2,47.7,38.5,33.6,27.4,23.8,17.9,73,56,41,30.00,29.80,20,6,20,0.00
2012-2-3,41.7,33.9,29.5,17.9,10.6,4.5,52,38,23,30.21,30.00,17,7,17,0.00
2012-2-4,48.9,37.1,28.4,17.9,13.8,4.1,45,38,28,30.12,29.94,14,6,14,0.00
2012-2-5,39.7,31.0,24.6,12.7,8.0,2.8,45,38,30,29.97,29.91,17,6,17,0.00
2012-2-6,44.1,37.4,28.9,33.3,20.7,8.2,77,51,40,29.94,29.74,19,11,19,0.00
2012-2-7,50.7,40.2,32.5,31.6,20.5,11.1,72,47,30,30.06,29.74,12,6,15,0.00
2012-2-8,38.8,32.5,24.8,18.8,11.1,2.4,50,41,34,30.15,29.91,12,5,15,0.00
2012-2-9,48.9,36.9,27.0,26.1,17.8,11.8,78,48,28,29.94,29.83,10,5,12,0.00
2012-2-10,47.3,38.2,26.8,34.9,23.1,8.6,78,55,40,29.97,29.74,15,6,15,0.00
2012-2-11,41.4,35.7,33.4,36.1,28.7,15.7,83,76,48,29.74,29.29,21,6,21,0.00
2012-2-12,33.4,25.3,18.0,15.9,0.8,-5.7,48,34,31,29.74,29.32,28,11,28,0.00
2012-2-13,40.3,32.2,18.3,21.8,10.9,-5.2,54,41,32,29.85,29.68,21,12,21,0.00
2012-2-14,44.8,37.9,29.5,30.0,16.3,10.9,66,42,28,29.97,29.85,12,4,12,0.04
2012-2-15,47.8,42.1,38.1,39.5,33.0,29.5,79,70,54,30.06,29.94,9,2,9,0.00
2012-2-16,46.6,38.4,28.6,34.3,28.1,23.1,85,68,42,30.12,29.91,10,3,10,0.00
2012-2-17,47.1,41.9,39.6,41.9,36.7,32.6,85,82,76,29.91,29.74,11,5,11,0.00
2012-2-19,49.6,37.5,26.4,19.8,13.8,10.4,54,38,27,29.88,29.80,15,5,15,0.00
2012-2-20,45.1,34.2,26.8,16.1,9.8,3.2,59,37,22,30.12,29.80,18,7,18,0.00
2012-2-21,43.3,34.9,22.8,33.3,15.8,4.7,76,46,34,30.18,29.71,16,6,17,0.00
2012-2-22,41.7,40.5,39.9,35.7,34.0,33.3,79,77,76,29.71,29.68,9,5,9,0.00
2012-3-2,33.8,33.8,33.8,24.4,24.4,24.4,68,68,68,29.83,29.83,6,6,10,0.00
2012-3-7,52.7,46.3,42.6,40.5,33.5,28.1,88,63,41,30.30,30.18,18,9,18,0.00
2012-3-8,59.0,49.1,43.0,44.6,39.5,34.1,95,71,41,30.18,29.68,28,12,28,0.00
2012-3-9,53.1,44.1,36.7,44.3,23.9,13.7,88,47,28,29.97,29.62,32,9,32,0.00
2012-3-10,45.5,34.4,27.1,27.5,13.2,7.8,78,42,30,30.39,29.97,22,8,22,0.00
2012-3-11,53.2,40.3,27.0,36.3,23.0,10.4,81,51,37,30.39,30.15,18,9,18,0.04
2012-3-12,59.0,47.0,40.1,41.9,34.9,28.3,88,66,35,30.15,30.00,17,7,17,0.00
2012-3-13,54.9,48.3,45.5,44.4,41.6,37.7,92,78,57,30.00,29.80,14,7,14,0.00
2012-3-14,53.1,47.0,44.8,47.5,44.2,38.3,97,90,60,29.94,29.80,14,5,14,0.00
2012-3-15,56.5,43.1,35.4,28.0,24.3,20.2,67,49,30,30.21,30.18,15,5,15,0.00
2012-3-16,50.5,40.4,32.4,35.9,29.5,24.4,82,66,40,30.18,29.97,12,3,12,0.00
2012-3-17,68.9,47.9,37.6,42.9,33.1,24.3,87,61,24,30.21,30.00,13,4,13,0.00
2012-3-18,52.2,44.0,36.9,42.4,37.5,27.6,98,79,53,30.21,30.03,14,7,14,0.00
2012-3-19,70.0,50.9,42.4,51.7,42.1,33.3,98,76,32,30.09,30.00,17,7,17,0.00
2012-3-20,77.7,52.5,39.2,45.3,40.0,33.1,83,65,30,30.18,30.09,14,4,14,0.00
2012-3-21,74.3,54.6,46.6,51.3,45.2,35.5,92,74,32,30.21,30.12,15,6,15,0.08
2012-3-22,60.6,52.1,48.4,52.0,45.9,40.2,94,81,49,30.12,29.85,16,7,16,0.00
2012-3-23,69.4,55.5,47.3,52.7,39.3,28.9,95,60,23,29.97,29.83,14,5,14,0.00
2012-3-24,64.9,51.1,42.6,35.5,24.7,18.9,63,37,23,30.00,29.88,14,5,14,0.00
2012-3-25,48.7,45.0,42.4,38.2,29.5,23.1,83,56,39,29.88,29.53,21,6,21,0.00
2012-3-26,59.0,43.9,32.0,41.4,22.7,0.0,86,49,17,29.80,29.47,29,8,29,0.00
2012-3-27,66.7,38.1,27.7,17.6,2.3,-5.4,28,22,15,30.00,29.80,26,9,26,0.00
2012-3-28,58.5,43.3,31.6,42.6,23.4,-0.2,87,49,22,30.00,29.38,20,6,20,0.00
2012-3-29,52.2,44.7,38.8,43.0,31.5,17.2,88,62,36,29.74,29.32,21,6,21,0.04
2012-3-30,71.8,45.0,36.9,24.1,16.5,8.1,48,33,15,29.88,29.74,17,7,17,0.00
2012-3-31,50.7,40.4,30.4,34.9,26.6,20.1,75,59,40,29.88,29.71,13,4,13,0.04
2012-4-1,54.1,39.9,27.5,36.3,23.1,15.3,85,56,27,29.74,29.50,15,5,15,0.04
2012-4-2,74.8,44.0,34.9,36.2,27.4,10.8,84,56,18,29.62,29.41,22,6,22,0.00
2012-4-3,82.2,45.8,35.1,28.3,13.4,8.7,46,28,14,29.65,29.53,20,7,20,0.00
2012-4-4,79.9,49.9,37.0,30.0,23.2,14.9,61,38,15,29.56,29.26,22,6,22,0.00
2012-4-5,63.9,45.6,38.3,28.5,20.6,15.5,51,38,25,29.74,29.44,20,7,20,0.00
2012-4-6,79.5,45.0,33.1,27.7,17.5,12.6,51,34,15,29.80,29.71,14,5,14,0.00
2012-4-7,57.0,43.2,33.3,23.1,15.6,12.3,51,33,22,29.83,29.77,17,5,17,0.00
2012-4-8,76.5,47.7,39.2,30.4,19.6,14.8,56,33,15,29.83,29.47,15,6,15,0.00
2012-4-9,65.8,50.8,44.4,37.0,26.8,21.3,70,40,26,29.50,29.35,22,10,22,0.00
2012-4-10,66.2,51.0,43.2,40.5,30.6,21.7,75,47,27,29.56,29.44,18,8,18,0.00
2012-4-11,61.7,46.5,38.5,40.1,31.4,21.9,82,61,25,29.62,29.56,15,5,17,0.04
2012-4-28,62.4,53.5,51.1,29.5,26.2,18.6,42,35,27,29.94,29.85,21,12,21,0.00
2012-4-29,78.1,52.6,41.0,28.4,16.5,7.4,41,25,13,30.03,29.80,20,8,20,0.00
2012-4-30,68.0,52.8,37.2,23.2,15.2,5.8,30,22,17,30.15,30.03,14,6,14,0.00
2012-5-1,61.7,61.7,61.7,21.4,21.4,21.4,21,21,21,30.09,30.09,8,8,8,0.00
2012-5-2,66.7,54.8,48.4,45.3,38.7,34.0,79,56,34,30.06,30.00,15,7,15,0.00
2012-5-3,68.2,52.9,47.3,45.7,40.3,33.6,81,64,33,30.03,29.94,10,4,10,0.00
2012-5-4,58.5,53.5,50.4,49.3,45.6,40.8,86,75,59,29.94,29.77,14,6,14,0.00
2012-5-5,58.6,53.8,50.5,51.2,46.3,41.7,91,76,60,29.88,29.77,10,3,10,0.16
2012-5-6,91.6,58.9,46.4,46.4,37.0,22.0,85,52,12,29.94,29.88,17,6,17,0.00
2012-5-7,88.3,56.3,42.4,46.2,37.3,31.1,81,53,18,29.97,29.91,10,4,10,0.00
2012-5-8,64.6,56.6,52.9,46.5,35.8,26.6,67,47,27,29.94,29.74,25,10,25,0.00
2012-5-9,60.1,58.8,57.0,58.3,55.3,46.5,94,88,66,29.74,29.44,19,9,19,0.00
2012-5-10,75.7,59.5,51.6,58.8,46.0,28.4,96,65,31,29.53,29.21,18,8,19,0.00
2012-5-11,84.9,55.7,48.2,46.2,33.5,26.6,73,44,20,29.85,29.53,17,8,17,0.00
2012-5-12,66.0,53.2,41.2,40.5,32.2,27.7,74,46,31,29.97,29.85,12,4,13,0.00
2012-5-20,96.1,73.4,53.6,37.2,30.6,24.4,46,22,11,30.12,30.06,16,6,16,0.00
2012-5-21,69.1,60.9,52.7,56.7,50.2,33.2,87,69,46,30.09,29.88,14,4,14,0.08
2012-5-22,64.4,61.6,60.6,61.2,58.6,56.7,92,90,87,29.88,29.71,10,4,10,0.00
2012-5-26,78.3,68.9,63.9,62.2,55.4,48.6,93,64,40,29.94,29.85,12,6,12,0.00
2012-5-27,102.9,71.4,60.8,64.1,49.9,38.3,90,53,15,29.94,29.85,13,5,13,0.00
2012-5-28,93.4,71.0,61.5,64.5,53.3,44.9,90,58,21,29.85,29.74,14,4,14,0.00
2012-5-29,95.2,70.5,61.2,62.8,56.5,49.0,86,65,23,29.77,29.56,13,5,13,0.00
2012-5-30,76.1,68.5,62.6,64.1,59.3,54.6,90,74,48,29.59,29.50,10,3,10,0.00
2012-5-31,97.9,72.1,59.9,63.0,48.9,37.1,90,53,16,29.68,29.50,10,3,10,0.00
2012-6-1,86.4,65.5,57.0,54.4,43.3,36.3,78,48,21,29.88,29.68,19,6,19,0.00
2012-6-2,69.6,61.3,55.9,60.2,54.4,45.4,92,79,53,29.83,29.50,33,11,33,0.00
2012-6-3,79.9,62.6,54.3,60.2,48.1,35.9,93,63,25,29.50,29.41,19,6,19,0.00
2012-6-4,57.2,54.2,52.3,48.1,45.1,41.7,82,71,63,29.44,29.35,19,7,19,0.00
2012-6-5,60.3,54.8,50.9,47.7,40.1,36.0,85,59,43,29.77,29.59,20,5,20,0.00
2012-6-6,75.9,57.2,45.5,52.6,42.8,36.7,84,61,31,29.83,29.74,8,3,8,0.00
2012-6-7,71.4,60.7,52.0,55.3,49.1,39.2,84,68,33,29.80,29.74,10,3,10,0.00
2012-6-8,77.9,62.6,52.5,60.2,51.2,44.7,89,69,33,29.77,29.62,13,5,13,0.71
2012-6-9,80.8,68.8,59.7,58.2,46.3,32.6,84,48,20,29.77,29.59,12,4,12,0.00
2012-6-10,98.6,69.9,57.9,57.0,43.2,31.8,82,46,16,30.03,29.77,17,5,17,0.00
2012-6-11,80.8,65.7,54.9,49.8,41.5,33.7,72,44,23,30.12,30.03,14,5,14,0.00
2012-6-12,79.2,66.3,58.8,53.6,46.9,39.1,75,52,27,30.06,29.83,14,6,14,0.00
2012-6-13,65.7,62.8,61.5,59.3,55.6,52.2,81,77,68,29.83,29.74,10,5,14,0.00
2012-6-18,72.1,63.6,54.1,48.9,44.9,40.6,74,52,36,30.00,29.94,13,4,13,0.00
2012-6-19,72.7,63.5,54.5,58.1,50.3,45.5,82,64,42,30.00,29.88,12,5,12,0.12
2012-6-20,88.5,72.0,63.7,62.4,57.8,50.8,89,64,30,29.88,29.68,10,5,13,0.00
2012-6-21,100.9,79.0,67.8,67.7,57.1,48.9,83,52,19,29.68,29.62,11,3,11,0.00
2012-6-22,89.4,77.5,69.4,63.7,57.6,50.1,75,53,29,0.00,0.00,13,3,13,0.00
2012-6-23,91.4,73.6,64.9,65.6,56.8,45.0,83,58,27,0.00,0.00,20,4,20,0.00
2012-6-24,80.6,71.3,62.8,55.9,49.6,42.7,70,49,30,0.00,0.00,13,4,13,0.35
2012-6-25,73.9,68.2,63.5,62.1,58.1,50.2,83,71,44,0.00,0.00,17,6,17,0.08
2012-6-26,74.8,66.3,61.9,60.1,51.7,41.9,89,63,33,0.00,0.00,12,4,13,0.00
2012-6-27,85.8,69.5,63.0,48.9,43.1,39.4,49,39,23,0.00,0.00,15,7,15,0.00
2012-6-28,90.1,72.1,66.7,57.5,48.5,42.2,69,44,27,0.00,0.00,13,5,13,0.00
2012-6-29,89.8,73.4,67.1,65.6,58.5,50.6,79,62,30,0.00,0.00,13,4,13,0.00
2012-6-30,95.0,75.1,65.5,61.6,55.4,47.9,79,54,26,0.00,0.00,14,5,14,0.00
2012-7-1,83.7,74.2,68.9,65.8,59.3,50.9,84,62,35,0.00,0.00,12,4,12,0.04
2012-7-2,98.4,75.1,66.2,64.6,54.5,45.2,84,53,20,0.00,0.00,12,4,12,0.00
2012-7-3,99.1,75.4,65.5,59.8,49.6,38.4,74,45,16,0.00,0.00,12,4,12,0.00
2012-7-4,92.5,74.5,69.8,65.3,59.3,51.1,82,61,28,0.00,0.00,12,5,12,0.00
2012-7-5,93.4,76.6,68.5,68.6,55.4,46.3,87,53,22,0.00,0.00,17,4,17,0.00
2012-7-6,83.1,77.2,67.1,62.6,54.5,51.1,75,48,33,0.00,0.00,8,4,8,0.00
2012-7-7,83.1,83.1,83.1,51.1,51.1,51.1,33,33,33,0.00,0.00,5,5,7,0.00
2012-7-8,83.1,81.9,72.3,61.5,52.3,51.1,68,37,33,0.00,0.00,8,5,8,0.00
2012-7-9,100.8,74.2,64.6,61.6,42.1,37.0,70,33,15,0.00,0.00,12,4,12,0.04
2012-7-10,97.9,74.4,65.5,57.7,48.9,36.9,65,44,20,0.00,0.00,8,4,8,0.00
2012-7-11,79.5,70.7,66.2,64.4,57.5,47.6,79,65,35,0.00,0.00,7,3,8,0.00
2012-7-17,76.3,75.8,75.4,65.5,63.9,62.6,71,66,63,0.00,0.00,10,6,10,0.00
2012-7-18,90.9,79.6,75.2,68.0,63.9,54.8,77,61,31,0.00,0.00,25,5,25,0.00
2012-7-22,87.1,73.7,67.5,53.2,46.1,42.2,58,39,23,0.00,0.00,10,5,10,0.00
2012-7-23,81.9,73.6,68.2,66.0,58.7,53.0,80,61,43,0.00,0.00,14,6,14,0.00
2012-7-24,82.8,74.5,67.6,70.2,64.3,50.0,89,72,37,0.00,0.00,18,5,18,0.00
2012-7-25,92.3,72.7,64.0,55.0,43.2,37.6,63,37,18,0.00,0.00,13,6,13,0.00
2012-7-26,76.6,73.0,67.5,69.8,62.3,51.2,88,70,50,0.00,0.00,16,6,16,0.00
2012-7-27,83.3,74.2,67.1,67.7,61.8,54.1,84,67,41,0.00,0.00,14,5,14,0.00
2012-7-28,83.1,71.5,65.8,66.5,61.3,53.5,89,72,38,29.80,0.00,14,4,14,0.59
2012-7-29,75.0,68.6,65.5,65.4,60.4,53.0,90,76,47,29.85,29.71,17,5,17,0.55
2012-7-30,92.3,70.4,63.9,62.1,54.5,45.9,87,61,24,29.94,29.85,10,4,10,0.55
2012-7-31,77.0,68.6,62.8,66.1,58.9,51.0,93,73,42,29.94,29.62,20,4,20,0.55
2012-8-1,82.4,72.4,67.3,66.8,59.7,49.7,94,68,34,29.77,29.65,14,4,18,0.55
2012-8-2,89.1,74.8,68.5,69.1,63.7,55.3,88,70,34,29.74,29.65,10,4,10,0.55
2012-8-3,85.3,76.2,72.3,71.7,68.4,60.7,92,79,45,29.91,29.74,11,5,11,0.55
2012-8-4,95.5,77.4,73.2,73.6,68.9,56.6,94,77,29,30.03,29.91,9,4,9,0.55
2012-8-5,95.4,79.8,74.8,75.1,68.2,55.2,90,71,28,30.06,29.80,17,6,17,0.55
2012-8-6,100.8,78.3,71.8,73.3,57.1,38.8,90,55,16,29.80,29.71,14,5,14,0.55
2012-8-7,82.2,72.4,63.0,59.4,49.7,41.7,73,47,25,29.83,29.77,9,3,9,0.55
2012-8-8,82.9,74.6,66.9,63.9,56.0,48.0,77,55,32,29.83,29.77,8,3,8,0.55
2012-8-9,90.7,76.4,68.2,67.7,61.3,51.8,83,62,29,29.80,29.71,10,4,10,0.55
2012-8-10,86.2,76.0,71.8,72.9,66.1,56.4,89,74,38,29.77,29.62,27,7,27,0.55
2012-8-11,85.8,76.9,73.2,72.2,67.9,57.5,90,76,39,29.77,29.65,15,6,15,0.55
2012-8-12,85.5,76.1,71.6,70.0,66.0,57.7,86,72,41,29.77,29.71,14,6,15,0.28
2012-8-13,88.5,76.5,72.7,70.0,57.5,47.6,87,55,29,29.77,29.71,12,6,12,0.55
2012-8-14,88.0,75.9,67.5,64.1,54.0,46.2,73,49,25,29.77,29.71,10,4,10,0.55
2012-8-15,79.7,72.6,69.1,68.8,64.1,56.9,84,75,56,29.77,29.68,10,4,10,0.59
2012-8-18,71.2,67.8,64.4,60.8,58.6,56.7,82,73,62,29.71,29.65,8,3,8,0.59
2012-8-19,78.8,68.6,61.2,62.1,53.2,44.4,87,62,31,29.77,29.68,10,3,10,0.59
2012-8-20,78.6,69.2,63.3,63.0,51.1,39.0,80,56,27,29.74,29.68,8,3,8,0.59
2012-8-21,82.2,73.5,66.7,57.6,49.5,44.4,69,44,30,29.88,29.74,10,6,10,0.59
2012-8-22,96.8,73.6,63.9,53.8,46.5,36.4,69,42,16,29.94,29.88,10,3,10,0.59
2012-8-23,95.5,73.5,64.9,59.6,51.4,43.3,68,48,20,29.97,29.91,9,4,9,0.59
2012-8-24,89.6,76.4,68.2,59.9,53.8,44.7,73,48,23,30.03,29.91,10,4,10,0.59
2012-8-25,94.8,73.4,64.4,63.7,51.8,38.4,82,53,18,30.12,30.03,12,3,12,0.59
2012-8-26,99.5,70.7,62.1,61.8,50.1,38.8,81,53,16,30.15,30.06,10,3,10,0.00
2012-8-27,81.7,71.0,60.3,65.7,56.2,50.8,81,62,37,30.06,29.77,14,4,14,0.00
2012-8-28,93.6,76.3,70.0,70.6,61.2,49.3,88,63,25,29.77,29.53,14,5,14,0.00
2012-8-29,90.0,69.2,60.4,56.3,39.0,32.0,61,35,18,29.80,29.65,12,4,12,0.00
2012-8-30,81.3,68.2,56.3,53.2,44.2,38.8,72,44,24,29.85,29.80,15,6,15,0.00
2012-8-31,84.0,74.0,69.8,67.1,51.5,41.7,81,47,33,29.83,29.65,14,7,15,0.00
2012-9-1,84.2,73.3,61.7,63.1,47.0,34.7,71,41,21,29.91,29.65,17,5,17,0.00
2012-9-2,90.3,68.8,60.8,50.1,43.0,34.1,64,42,19,29.94,29.85,13,4,13,0.00
2012-9-3,90.7,67.7,59.0,58.8,45.0,33.8,79,49,18,30.03,29.94,14,5,14,0.00
2012-9-4,79.9,71.5,62.2,68.8,57.8,45.4,86,63,37,29.97,29.74,17,6,17,0.16
2012-9-5,75.9,72.9,66.6,70.6,68.5,63.2,91,86,69,29.74,29.56,19,6,19,0.67
2012-9-6,82.2,69.3,62.2,66.1,56.8,46.9,90,68,33,29.71,29.62,10,3,10,0.00
2012-9-7,84.7,73.5,65.7,68.6,62.0,55.4,87,69,39,29.77,29.68,10,4,10,0.00
2012-9-8,83.3,76.5,70.7,70.0,62.6,52.0,88,65,36,29.74,29.50,21,8,21,0.00
2012-9-9,76.6,66.2,58.1,67.0,47.4,39.3,80,52,30,29.65,29.50,13,4,18,0.00
2012-9-10,71.6,62.3,55.9,53.7,39.2,28.9,83,47,25,29.85,29.62,16,5,16,0.00
2012-9-11,74.1,62.2,53.6,40.5,32.7,29.8,42,34,23,30.09,29.85,15,6,15,0.00
2012-9-12,75.0,68.2,62.6,47.1,41.8,37.1,48,39,30,30.18,30.09,10,5,10,0.00
2012-9-13,77.4,69.7,65.5,54.0,45.3,41.7,62,42,31,30.21,30.09,10,5,10,0.00
2012-9-14,77.2,70.3,66.4,56.7,51.8,44.3,71,53,32,30.12,29.91,14,6,14,0.00
2012-9-15,80.6,68.3,59.5,62.7,46.5,31.1,83,50,21,29.91,29.77,14,5,14,0.00
2012-9-16,77.9,62.7,51.6,42.7,35.0,28.9,65,38,21,29.91,29.80,10,4,10,0.00
2012-9-17,73.2,62.3,49.3,47.7,38.2,31.5,68,43,27,29.91,29.85,8,4,9,0.00
2012-9-18,78.6,69.3,60.1,59.3,48.4,42.4,64,48,32,29.88,29.62,28,9,28,0.00
2012-9-19,75.2,66.6,55.8,65.5,47.2,31.2,89,55,22,29.97,29.56,27,5,27,0.83
2012-9-20,69.3,59.6,51.4,42.4,36.3,29.9,65,44,24,30.06,29.97,17,4,17,0.00
2012-9-21,69.1,58.0,50.0,52.9,43.6,37.7,78,60,34,29.97,29.83,14,4,14,0.00
2012-9-22,65.8,60.6,58.8,56.9,54.4,49.7,86,80,57,29.83,29.77,12,4,13,0.00
2012-9-24,73.8,62.8,53.4,35.8,29.5,26.5,51,29,22,29.94,29.88,11,5,11,0.00
2012-9-25,73.2,64.3,56.3,44.7,33.1,25.3,47,31,25,30.03,29.94,16,7,16,0.00
2012-9-26,73.8,68.1,64.8,59.8,48.0,41.5,77,50,35,30.00,29.85,23,7,23,0.00
2012-9-27,70.9,64.7,54.0,61.8,47.3,32.6,84,57,26,30.06,29.83,17,5,17,0.00
2012-9-28,65.3,58.8,53.6,62.1,44.9,35.3,90,62,36,30.06,29.74,26,7,26,0.43
2012-9-29,66.2,59.6,56.1,63.0,54.0,48.1,91,82,67,29.74,29.68,10,3,14,0.28
2012-9-30,63.0,58.9,56.1,55.9,49.8,37.8,86,73,41,29.71,29.56,14,5,14,0.71
2012-10-1,63.5,60.2,57.4,40.4,35.7,31.6,46,40,34,29.62,29.56,20,12,20,0.00
2012-10-15,72.1,66.4,62.8,56.7,52.5,46.4,75,62,42,29.83,29.47,12,8,18,0.00
2012-10-16,64.2,56.6,50.2,56.5,33.1,21.1,84,45,26,29.68,29.38,11,7,14,0.08
2012-10-17,60.4,48.7,38.7,33.6,26.8,23.7,62,44,26,29.83,29.68,8,4,13,0.00
2012-10-18,66.2,53.8,44.2,48.5,38.1,33.0,75,58,33,29.94,29.85,7,4,12,0.00
2012-10-19,68.7,63.2,53.4,63.5,51.4,36.4,84,68,33,29.91,29.59,20,10,22,0.08
2012-10-20,68.5,65.0,60.3,64.0,58.1,45.7,88,79,56,29.59,29.47,10,7,15,0.12
2012-10-21,63.9,57.8,53.2,38.2,29.1,25.5,45,33,26,29.74,29.59,10,6,14,0.00
2012-10-22,63.7,56.7,53.4,31.2,29.0,26.6,39,35,25,29.77,29.71,15,7,15,0.00
2012-10-25,63.0,51.6,46.8,35.8,30.4,24.2,64,46,24,30.12,30.09,8,3,8,0.04
2012-10-26,66.6,54.3,44.6,48.0,34.2,25.2,74,50,24,30.09,29.94,8,4,8,0.00
2012-10-29,64.2,62.2,58.3,60.1,57.0,52.4,92,83,68,29.21,28.91,50,14,50,1.02
2012-10-30,61.3,61.1,61.0,58.8,58.7,58.3,92,92,91,29.15,29.12,21,9,21,0.00
2012-11-1,56.1,53.0,49.8,33.2,29.0,26.4,47,40,36,29.41,29.35,15,9,15,0.00
2012-11-2,55.4,50.7,47.7,29.6,26.0,22.0,47,38,30,29.44,29.35,8,6,13,0.00
2012-11-3,55.2,47.8,42.6,23.6,21.2,17.0,44,35,27,29.62,29.44,14,9,17,0.00
2012-11-4,57.7,45.7,39.6,24.9,20.1,17.1,44,36,28,29.77,29.62,11,7,20,0.00
2012-11-5,47.8,40.6,35.1,17.7,14.0,7.4,40,34,28,29.94,29.77,11,7,17,0.00
2012-11-6,46.8,36.0,29.7,12.1,8.2,4.7,41,31,22,30.06,29.94,10,6,14,0.00
2012-11-7,45.9,41.3,33.8,37.8,29.4,14.2,86,65,37,29.97,29.41,42,16,42,0.67
2012-11-8,46.0,42.6,39.2,42.3,38.5,31.5,90,85,74,29.56,29.23,44,15,44,0.98
2012-11-9,55.0,44.5,37.9,31.6,19.1,12.0,73,38,23,29.97,29.53,20,7,20,0.00
2012-11-10,56.8,45.9,40.1,26.9,21.2,13.4,58,38,25,30.30,29.97,13,6,13,0.00
2012-11-11,63.5,56.8,39.4,45.9,37.5,27.1,73,50,34,30.36,30.30,18,7,18,0.00
2012-11-12,68.2,60.0,53.4,54.2,46.7,36.8,83,64,34,30.36,30.12,20,8,20,0.00
2012-11-13,64.2,53.9,40.8,56.5,45.0,25.7,82,72,51,30.24,30.00,21,8,21,0.59
2012-11-14,48.9,43.9,40.3,36.8,23.6,16.3,79,47,31,30.33,30.21,27,8,27,0.00
2012-11-15,45.9,43.6,42.1,27.0,22.4,19.1,54,43,38,30.24,30.12,19,8,19,0.00
2012-11-16,50.7,43.2,39.2,25.3,23.2,20.5,53,45,31,30.15,30.09,18,6,18,0.00
2012-11-18,52.3,42.7,33.8,35.1,19.5,14.2,76,41,28,30.53,30.45,17,5,17,0.00
2012-11-19,54.0,43.5,34.3,40.3,28.8,21.4,74,57,38,30.45,30.09,17,4,17,0.00
2012-11-20,55.8,43.7,36.1,36.2,26.4,19.2,75,53,30,30.09,29.94,17,5,17,0.00
2012-11-21,56.1,44.5,35.1,37.2,28.9,23.4,77,56,32,30.06,29.97,18,4,18,0.00
2012-11-22,57.0,45.0,34.9,40.8,29.9,22.4,81,58,32,30.09,29.97,14,3,14,0.00
2012-11-23,54.1,42.1,30.9,42.2,30.9,23.0,78,65,43,29.97,29.53,10,3,10,0.00
2012-11-24,49.5,44.0,34.2,44.6,21.8,6.0,86,45,24,29.53,29.38,24,8,24,0.00
2012-11-25,42.3,36.9,32.7,11.5,8.5,5.3,34,30,28,29.74,29.53,21,10,21,0.00
2012-11-26,48.4,40.5,36.0,15.8,12.0,9.5,36,31,24,30.09,29.74,17,8,17,0.00
2012-11-27,41.9,36.3,29.3,31.7,19.6,6.6,78,52,33,30.18,30.03,9,3,10,0.12
2012-11-28,41.7,37.0,33.4,33.8,23.5,12.6,85,60,39,30.03,29.94,19,6,19,0.08
2012-11-29,43.5,38.6,33.1,16.6,14.1,11.4,47,37,29,30.15,30.03,19,10,19,0.00
2012-11-30,42.8,37.0,31.8,16.7,11.6,6.8,45,35,30,30.39,30.09,18,6,18,0.00
2012-12-1,43.7,38.0,33.1,38.0,23.1,9.5,80,57,35,30.45,30.33,13,4,13,0.00
2012-12-2,60.4,52.3,43.7,47.4,40.9,35.1,81,66,40,30.33,29.94,19,9,19,0.00
2012-12-3,60.1,48.3,36.0,44.8,34.5,23.7,86,62,29,30.15,29.91,13,4,14,0.00
2012-12-4,57.2,48.4,35.6,50.4,39.3,25.7,86,71,51,30.18,29.88,19,6,19,0.00
2012-12-5,57.0,50.1,37.2,51.7,31.0,8.6,85,52,27,29.94,29.71,24,9,24,0.04
2012-12-6,43.2,32.6,24.8,12.3,6.2,3.0,45,33,28,30.18,29.94,18,6,18,0.00
2012-12-7,53.8,41.2,25.5,37.5,24.6,7.3,70,52,35,30.15,29.91,14,4,14,0.04
2012-12-8,58.3,49.4,45.5,55.4,43.6,37.5,91,80,70,29.91,29.68,16,4,16,0.47
2012-12-9,51.6,45.4,41.5,43.3,32.5,17.3,89,64,30,30.12,29.83,17,4,17,0.08
2012-12-10,60.6,54.1,44.8,58.3,51.3,37.7,94,90,76,30.00,29.35,26,9,26,1.46
2012-12-11,51.3,46.3,36.3,49.4,30.3,9.3,95,59,28,30.00,29.38,15,5,15,0.04
2012-12-12,41.5,35.1,32.2,11.7,8.2,6.4,35,32,29,30.21,30.00,15,6,15,0.00
2012-12-13,46.6,36.6,27.7,17.5,12.8,9.4,56,38,27,30.27,30.15,10,3,10,0.00
2012-12-14,46.4,40.0,27.5,24.2,17.9,12.7,66,41,32,30.15,29.91,16,8,17,0.00
2012-12-15,45.5,37.1,30.4,18.8,13.6,6.5,51,38,28,30.18,30.00,16,5,16,0.00
2012-12-16,39.7,36.1,30.6,35.6,19.9,10.1,85,54,35,30.18,29.85,19,6,19,0.24
2012-12-17,50.2,45.7,39.7,45.8,41.4,35.6,90,85,76,29.85,29.59,25,6,25,0.35
2012-12-18,56.3,48.9,45.1,53.5,44.9,36.5,93,86,70,29.59,29.26,19,6,19,0.31
2012-12-19,48.0,42.9,38.8,37.3,20.4,15.0,75,41,30,29.85,29.26,25,9,25,0.00
2012-12-20,46.9,38.9,35.1,24.6,19.9,16.0,57,46,36,30.03,29.83,15,5,16,0.00
2012-12-21,52.0,44.5,38.5,48.8,35.4,24.6,90,71,57,29.88,29.09,33,11,33,0.20
2012-12-30,32.2,27.2,23.4,9.5,4.9,0.9,41,38,35,29.83,29.53,2,2,2,0.20
2012-12-31,37.2,30.9,21.9,16.3,7.9,-0.8,43,37,33,29.91,29.62,17,4,17,0.00
2013-1-1,38.8,34.2,24.8,15.0,8.1,-1.0,39,33,29,29.77,29.59,19,10,19,0.08